sensor_id;sensor_type;location;lat;lon;timestamp;P1;durP1;ratioP1;P2;durP2;ratioP2
31043;SDS011;17710;52.520;13.352;2023-04-09T00:00:00;37.47;;;22.27;;
31043;SDS011;17710;52.520;13.352;2023-04-09T00:02:26;34.40;;;21.38;;
31043;SDS011;17710;52.520;13.352;2023-04-09T00:04:53;38.88;;;22.25;;
31043;SDS011;17710;52.520;13.352;2023-04-09T00:07:19;40.15;;;21.92;;
31043;SDS011;17710;52.520;13.352;2023-04-09T00:09:46;38.70;;;22.25;;
31043;SDS011;17710;52.520;13.352;2023-04-09T00:12:13;39.30;;;22.95;;
31043;SDS011;17710;52.520;13.352;2023-04-09T00:14:40;36.55;;;21.50;;
31043;SDS011;17710;52.520;13.352;2023-04-09T00:17:06;35.55;;;22.42;;
31043;SDS011;17710;52.520;13.352;2023-04-09T00:19:32;37.63;;;21.73;;
31043;SDS011;17710;52.520;13.352;2023-04-09T00:21:59;33.75;;;21.17;;
31043;SDS011;17710;52.520;13.352;2023-04-09T00:24:25;35.35;;;20.70;;
31043;SDS011;17710;52.520;13.352;2023-04-09T00:26:52;35.90;;;21.38;;
31043;SDS011;17710;52.520;13.352;2023-04-09T00:29:19;33.33;;;21.23;;
31043;SDS011;17710;52.520;13.352;2023-04-09T00:31:46;33.65;;;21.10;;
31043;SDS011;17710;52.520;13.352;2023-04-09T00:34:12;38.28;;;21.48;;
31043;SDS011;17710;52.520;13.352;2023-04-09T00:36:39;36.95;;;21.63;;
31043;SDS011;17710;52.520;13.352;2023-04-09T00:39:05;37.25;;;21.27;;
31043;SDS011;17710;52.520;13.352;2023-04-09T00:41:32;39.50;;;21.98;;
31043;SDS011;17710;52.520;13.352;2023-04-09T00:43:58;41.30;;;22.65;;
31043;SDS011;17710;52.520;13.352;2023-04-09T00:46:26;37.75;;;22.08;;
31043;SDS011;17710;52.520;13.352;2023-04-09T00:48:52;34.72;;;20.88;;
31043;SDS011;17710;52.520;13.352;2023-04-09T00:51:18;38.40;;;21.60;;
31043;SDS011;17710;52.520;13.352;2023-04-09T00:53:45;38.10;;;22.83;;
31043;SDS011;17710;52.520;13.352;2023-04-09T00:56:12;34.33;;;21.38;;
31043;SDS011;17710;52.520;13.352;2023-04-09T00:58:41;36.95;;;21.50;;
31043;SDS011;17710;52.520;13.352;2023-04-09T01:01:07;39.38;;;21.08;;
31043;SDS011;17710;52.520;13.352;2023-04-09T01:03:35;36.70;;;22.27;;
31043;SDS011;17710;52.520;13.352;2023-04-09T01:06:04;37.65;;;22.42;;
31043;SDS011;17710;52.520;13.352;2023-04-09T01:08:37;38.40;;;20.88;;
31043;SDS011;17710;52.520;13.352;2023-04-09T01:11:12;37.85;;;22.38;;
31043;SDS011;17710;52.520;13.352;2023-04-09T01:13:46;36.95;;;21.30;;
31043;SDS011;17710;52.520;13.352;2023-04-09T01:16:20;38.15;;;22.27;;
31043;SDS011;17710;52.520;13.352;2023-04-09T01:18:51;40.85;;;23.00;;
31043;SDS011;17710;52.520;13.352;2023-04-09T01:21:25;37.83;;;22.17;;
31043;SDS011;17710;52.520;13.352;2023-04-09T01:23:56;43.95;;;22.75;;
31043;SDS011;17710;52.520;13.352;2023-04-09T01:26:31;44.15;;;23.48;;
31043;SDS011;17710;52.520;13.352;2023-04-09T01:29:12;40.92;;;23.45;;
31043;SDS011;17710;52.520;13.352;2023-04-09T01:31:40;44.50;;;23.83;;
31043;SDS011;17710;52.520;13.352;2023-04-09T01:34:09;41.03;;;24.08;;
31043;SDS011;17710;52.520;13.352;2023-04-09T01:36:36;41.92;;;23.65;;
31043;SDS011;17710;52.520;13.352;2023-04-09T01:39:06;43.00;;;24.08;;
31043;SDS011;17710;52.520;13.352;2023-04-09T01:41:33;42.17;;;23.48;;
31043;SDS011;17710;52.520;13.352;2023-04-09T01:44:01;42.58;;;24.23;;
31043;SDS011;17710;52.520;13.352;2023-04-09T01:46:30;43.53;;;23.67;;
31043;SDS011;17710;52.520;13.352;2023-04-09T01:48:58;41.75;;;23.20;;
31043;SDS011;17710;52.520;13.352;2023-04-09T01:51:25;40.13;;;23.63;;
31043;SDS011;17710;52.520;13.352;2023-04-09T01:53:52;45.17;;;24.88;;
31043;SDS011;17710;52.520;13.352;2023-04-09T01:56:19;41.92;;;24.38;;
31043;SDS011;17710;52.520;13.352;2023-04-09T01:58:46;40.55;;;23.50;;
31043;SDS011;17710;52.520;13.352;2023-04-09T02:01:13;41.65;;;23.55;;
31043;SDS011;17710;52.520;13.352;2023-04-09T02:03:50;40.50;;;23.92;;
31043;SDS011;17710;52.520;13.352;2023-04-09T02:06:21;42.33;;;23.27;;
31043;SDS011;17710;52.520;13.352;2023-04-09T02:08:57;45.50;;;24.38;;
31043;SDS011;17710;52.520;13.352;2023-04-09T02:11:26;42.58;;;24.17;;
31043;SDS011;17710;52.520;13.352;2023-04-09T02:13:54;44.25;;;25.17;;
31043;SDS011;17710;52.520;13.352;2023-04-09T02:16:21;46.00;;;25.27;;
31043;SDS011;17710;52.520;13.352;2023-04-09T02:18:52;42.15;;;23.67;;
31043;SDS011;17710;52.520;13.352;2023-04-09T02:21:20;41.58;;;24.50;;
31043;SDS011;17710;52.520;13.352;2023-04-09T02:23:47;43.88;;;25.70;;
31043;SDS011;17710;52.520;13.352;2023-04-09T02:26:13;42.33;;;24.33;;
31043;SDS011;17710;52.520;13.352;2023-04-09T02:28:39;52.10;;;25.27;;
31043;SDS011;17710;52.520;13.352;2023-04-09T02:31:06;42.30;;;25.35;;
31043;SDS011;17710;52.520;13.352;2023-04-09T02:33:32;44.70;;;24.77;;
31043;SDS011;17710;52.520;13.352;2023-04-09T02:36:00;43.40;;;24.95;;
31043;SDS011;17710;52.520;13.352;2023-04-09T02:38:26;43.08;;;24.65;;
31043;SDS011;17710;52.520;13.352;2023-04-09T02:40:53;42.33;;;24.27;;
31043;SDS011;17710;52.520;13.352;2023-04-09T02:43:19;47.10;;;25.75;;
31043;SDS011;17710;52.520;13.352;2023-04-09T02:45:45;43.20;;;25.05;;
31043;SDS011;17710;52.520;13.352;2023-04-09T02:48:12;43.17;;;25.67;;
31043;SDS011;17710;52.520;13.352;2023-04-09T02:50:38;45.65;;;25.75;;
31043;SDS011;17710;52.520;13.352;2023-04-09T02:53:06;50.28;;;27.13;;
31043;SDS011;17710;52.520;13.352;2023-04-09T02:55:32;49.00;;;26.80;;
31043;SDS011;17710;52.520;13.352;2023-04-09T02:57:58;43.03;;;24.75;;
31043;SDS011;17710;52.520;13.352;2023-04-09T03:00:25;44.22;;;25.17;;
31043;SDS011;17710;52.520;13.352;2023-04-09T03:02:51;47.97;;;25.27;;
31043;SDS011;17710;52.520;13.352;2023-04-09T03:05:17;45.03;;;25.20;;
31043;SDS011;17710;52.520;13.352;2023-04-09T03:07:45;42.60;;;24.08;;
31043;SDS011;17710;52.520;13.352;2023-04-09T03:10:13;42.88;;;24.15;;
31043;SDS011;17710;52.520;13.352;2023-04-09T03:12:39;42.40;;;24.98;;
31043;SDS011;17710;52.520;13.352;2023-04-09T03:15:08;47.50;;;26.88;;
31043;SDS011;17710;52.520;13.352;2023-04-09T03:17:35;47.17;;;27.35;;
31043;SDS011;17710;52.520;13.352;2023-04-09T03:20:02;44.85;;;25.58;;
31043;SDS011;17710;52.520;13.352;2023-04-09T03:22:29;48.03;;;25.63;;
31043;SDS011;17710;52.520;13.352;2023-04-09T03:25:00;47.70;;;26.60;;
31043;SDS011;17710;52.520;13.352;2023-04-09T03:27:28;46.78;;;26.75;;
31043;SDS011;17710;52.520;13.352;2023-04-09T03:29:54;46.90;;;26.73;;
31043;SDS011;17710;52.520;13.352;2023-04-09T03:32:21;44.88;;;26.02;;
31043;SDS011;17710;52.520;13.352;2023-04-09T03:34:47;50.58;;;26.88;;
31043;SDS011;17710;52.520;13.352;2023-04-09T03:37:14;48.55;;;26.63;;
31043;SDS011;17710;52.520;13.352;2023-04-09T03:39:40;45.40;;;25.63;;
31043;SDS011;17710;52.520;13.352;2023-04-09T03:42:06;45.50;;;25.17;;
31043;SDS011;17710;52.520;13.352;2023-04-09T03:44:34;48.50;;;26.92;;
31043;SDS011;17710;52.520;13.352;2023-04-09T03:47:00;46.33;;;26.45;;
31043;SDS011;17710;52.520;13.352;2023-04-09T03:49:27;50.92;;;25.85;;
31043;SDS011;17710;52.520;13.352;2023-04-09T03:51:53;49.47;;;26.83;;
31043;SDS011;17710;52.520;13.352;2023-04-09T03:54:20;44.70;;;26.00;;
31043;SDS011;17710;52.520;13.352;2023-04-09T03:56:46;43.78;;;24.38;;
31043;SDS011;17710;52.520;13.352;2023-04-09T03:59:12;46.72;;;25.02;;
31043;SDS011;17710;52.520;13.352;2023-04-09T04:01:40;48.42;;;25.65;;
31043;SDS011;17710;52.520;13.352;2023-04-09T04:04:06;45.42;;;25.38;;
31043;SDS011;17710;52.520;13.352;2023-04-09T04:06:33;54.75;;;28.33;;
31043;SDS011;17710;52.520;13.352;2023-04-09T04:09:00;50.22;;;26.30;;
31043;SDS011;17710;52.520;13.352;2023-04-09T04:11:26;48.85;;;26.73;;
31043;SDS011;17710;52.520;13.352;2023-04-09T04:13:52;50.40;;;25.83;;
31043;SDS011;17710;52.520;13.352;2023-04-09T04:16:20;49.63;;;26.17;;
31043;SDS011;17710;52.520;13.352;2023-04-09T04:18:48;50.17;;;27.02;;
31043;SDS011;17710;52.520;13.352;2023-04-09T04:21:14;50.08;;;26.42;;
31043;SDS011;17710;52.520;13.352;2023-04-09T04:23:41;48.67;;;27.65;;
31043;SDS011;17710;52.520;13.352;2023-04-09T04:26:08;53.72;;;27.30;;
31043;SDS011;17710;52.520;13.352;2023-04-09T04:28:35;52.88;;;27.83;;
31043;SDS011;17710;52.520;13.352;2023-04-09T04:31:02;54.85;;;29.15;;
31043;SDS011;17710;52.520;13.352;2023-04-09T04:33:32;56.08;;;28.40;;
31043;SDS011;17710;52.520;13.352;2023-04-09T04:36:06;56.70;;;30.42;;
31043;SDS011;17710;52.520;13.352;2023-04-09T04:38:35;54.70;;;29.02;;
31043;SDS011;17710;52.520;13.352;2023-04-09T04:41:01;54.28;;;29.30;;
31043;SDS011;17710;52.520;13.352;2023-04-09T04:43:28;57.67;;;29.63;;
31043;SDS011;17710;52.520;13.352;2023-04-09T04:45:54;53.83;;;28.77;;
31043;SDS011;17710;52.520;13.352;2023-04-09T04:48:21;56.80;;;30.67;;
31043;SDS011;17710;52.520;13.352;2023-04-09T04:50:53;51.58;;;28.42;;
31043;SDS011;17710;52.520;13.352;2023-04-09T04:53:21;55.05;;;29.02;;
31043;SDS011;17710;52.520;13.352;2023-04-09T04:55:47;53.70;;;29.60;;
31043;SDS011;17710;52.520;13.352;2023-04-09T04:58:13;51.75;;;28.73;;
31043;SDS011;17710;52.520;13.352;2023-04-09T05:00:40;56.80;;;28.92;;
31043;SDS011;17710;52.520;13.352;2023-04-09T05:03:06;54.75;;;28.98;;
31043;SDS011;17710;52.520;13.352;2023-04-09T05:05:33;48.90;;;27.15;;
31043;SDS011;17710;52.520;13.352;2023-04-09T05:07:59;51.65;;;28.08;;
31043;SDS011;17710;52.520;13.352;2023-04-09T05:10:27;50.90;;;28.95;;
31043;SDS011;17710;52.520;13.352;2023-04-09T05:12:53;52.70;;;27.80;;
31043;SDS011;17710;52.520;13.352;2023-04-09T05:15:20;54.15;;;29.25;;
31043;SDS011;17710;52.520;13.352;2023-04-09T05:17:46;52.25;;;27.55;;
31043;SDS011;17710;52.520;13.352;2023-04-09T05:20:13;50.80;;;28.08;;
31043;SDS011;17710;52.520;13.352;2023-04-09T05:22:39;48.65;;;27.52;;
31043;SDS011;17710;52.520;13.352;2023-04-09T05:25:06;55.35;;;29.20;;
31043;SDS011;17710;52.520;13.352;2023-04-09T05:27:35;50.55;;;28.45;;
31043;SDS011;17710;52.520;13.352;2023-04-09T05:30:02;52.63;;;26.92;;
31043;SDS011;17710;52.520;13.352;2023-04-09T05:32:29;54.75;;;28.73;;
31043;SDS011;17710;52.520;13.352;2023-04-09T05:34:55;55.63;;;27.08;;
31043;SDS011;17710;52.520;13.352;2023-04-09T05:37:21;56.92;;;30.08;;
31043;SDS011;17710;52.520;13.352;2023-04-09T05:39:48;55.28;;;28.38;;
31043;SDS011;17710;52.520;13.352;2023-04-09T05:42:14;56.17;;;28.70;;
31043;SDS011;17710;52.520;13.352;2023-04-09T05:44:42;55.20;;;30.52;;
31043;SDS011;17710;52.520;13.352;2023-04-09T05:47:09;56.58;;;29.67;;
31043;SDS011;17710;52.520;13.352;2023-04-09T05:49:35;59.78;;;30.02;;
31043;SDS011;17710;52.520;13.352;2023-04-09T05:52:01;59.42;;;29.48;;
31043;SDS011;17710;52.520;13.352;2023-04-09T05:54:28;58.33;;;29.27;;
31043;SDS011;17710;52.520;13.352;2023-04-09T05:56:54;62.58;;;30.80;;
31043;SDS011;17710;52.520;13.352;2023-04-09T05:59:20;66.63;;;32.33;;
31043;SDS011;17710;52.520;13.352;2023-04-09T06:01:48;57.10;;;29.80;;
31043;SDS011;17710;52.520;13.352;2023-04-09T06:04:15;57.80;;;30.55;;
31043;SDS011;17710;52.520;13.352;2023-04-09T06:06:41;58.55;;;31.15;;
31043;SDS011;17710;52.520;13.352;2023-04-09T06:09:07;60.13;;;30.15;;
31043;SDS011;17710;52.520;13.352;2023-04-09T06:11:34;63.08;;;31.67;;
31043;SDS011;17710;52.520;13.352;2023-04-09T06:14:00;61.00;;;31.33;;
31043;SDS011;17710;52.520;13.352;2023-04-09T06:16:27;65.15;;;31.88;;
31043;SDS011;17710;52.520;13.352;2023-04-09T06:18:54;61.97;;;29.48;;
31043;SDS011;17710;52.520;13.352;2023-04-09T06:21:21;56.90;;;30.20;;
31043;SDS011;17710;52.520;13.352;2023-04-09T06:23:47;58.45;;;30.35;;
31043;SDS011;17710;52.520;13.352;2023-04-09T06:26:14;53.22;;;28.48;;
31043;SDS011;17710;52.520;13.352;2023-04-09T06:28:40;48.40;;;27.45;;
31043;SDS011;17710;52.520;13.352;2023-04-09T06:31:07;50.10;;;28.30;;
31043;SDS011;17710;52.520;13.352;2023-04-09T06:33:33;51.58;;;28.55;;
31043;SDS011;17710;52.520;13.352;2023-04-09T06:36:01;46.78;;;27.15;;
31043;SDS011;17710;52.520;13.352;2023-04-09T06:38:27;43.42;;;25.98;;
31043;SDS011;17710;52.520;13.352;2023-04-09T06:40:54;47.47;;;26.55;;
31043;SDS011;17710;52.520;13.352;2023-04-09T06:43:21;50.08;;;27.25;;
31043;SDS011;17710;52.520;13.352;2023-04-09T06:45:48;43.45;;;26.40;;
31043;SDS011;17710;52.520;13.352;2023-04-09T06:48:14;45.90;;;26.67;;
31043;SDS011;17710;52.520;13.352;2023-04-09T06:50:41;49.08;;;26.05;;
31043;SDS011;17710;52.520;13.352;2023-04-09T06:53:08;46.90;;;27.15;;
31043;SDS011;17710;52.520;13.352;2023-04-09T06:55:35;47.03;;;25.63;;
31043;SDS011;17710;52.520;13.352;2023-04-09T06:58:01;46.03;;;25.92;;
31043;SDS011;17710;52.520;13.352;2023-04-09T07:00:28;43.85;;;26.98;;
31043;SDS011;17710;52.520;13.352;2023-04-09T07:02:54;54.30;;;28.77;;
31043;SDS011;17710;52.520;13.352;2023-04-09T07:05:20;45.53;;;26.25;;
31043;SDS011;17710;52.520;13.352;2023-04-09T07:07:48;43.55;;;25.73;;
31043;SDS011;17710;52.520;13.352;2023-04-09T07:10:16;42.33;;;24.65;;
31043;SDS011;17710;52.520;13.352;2023-04-09T07:12:42;45.35;;;27.13;;
31043;SDS011;17710;52.520;13.352;2023-04-09T07:15:08;47.65;;;26.67;;
31043;SDS011;17710;52.520;13.352;2023-04-09T07:17:35;48.50;;;26.77;;
31043;SDS011;17710;52.520;13.352;2023-04-09T07:20:01;45.72;;;26.40;;
31043;SDS011;17710;52.520;13.352;2023-04-09T07:22:28;44.80;;;26.77;;
31043;SDS011;17710;52.520;13.352;2023-04-09T07:24:55;45.15;;;27.17;;
31043;SDS011;17710;52.520;13.352;2023-04-09T07:27:24;51.00;;;28.52;;
31043;SDS011;17710;52.520;13.352;2023-04-09T07:29:53;48.92;;;28.15;;
31043;SDS011;17710;52.520;13.352;2023-04-09T07:32:20;51.10;;;27.80;;
31043;SDS011;17710;52.520;13.352;2023-04-09T07:34:46;50.97;;;29.58;;
31043;SDS011;17710;52.520;13.352;2023-04-09T07:37:12;50.42;;;28.10;;
31043;SDS011;17710;52.520;13.352;2023-04-09T07:39:39;51.95;;;27.67;;
31043;SDS011;17710;52.520;13.352;2023-04-09T07:42:06;42.58;;;25.08;;
31043;SDS011;17710;52.520;13.352;2023-04-09T07:44:34;46.45;;;27.38;;
31043;SDS011;17710;52.520;13.352;2023-04-09T07:47:01;48.03;;;26.98;;
31043;SDS011;17710;52.520;13.352;2023-04-09T07:49:27;49.15;;;28.15;;
31043;SDS011;17710;52.520;13.352;2023-04-09T07:51:54;46.20;;;27.13;;
31043;SDS011;17710;52.520;13.352;2023-04-09T07:54:21;45.78;;;27.90;;
31043;SDS011;17710;52.520;13.352;2023-04-09T07:56:48;45.03;;;26.77;;
31043;SDS011;17710;52.520;13.352;2023-04-09T07:59:14;43.13;;;25.40;;
31043;SDS011;17710;52.520;13.352;2023-04-09T08:01:43;38.75;;;24.00;;
31043;SDS011;17710;52.520;13.352;2023-04-09T08:04:09;41.60;;;25.63;;
31043;SDS011;17710;52.520;13.352;2023-04-09T08:06:36;42.92;;;24.70;;
31043;SDS011;17710;52.520;13.352;2023-04-09T08:09:03;42.10;;;25.35;;
31043;SDS011;17710;52.520;13.352;2023-04-09T08:11:30;43.35;;;25.65;;
31043;SDS011;17710;52.520;13.352;2023-04-09T08:13:56;44.10;;;25.60;;
31043;SDS011;17710;52.520;13.352;2023-04-09T08:16:25;39.67;;;25.15;;
31043;SDS011;17710;52.520;13.352;2023-04-09T08:18:54;43.80;;;26.10;;
31043;SDS011;17710;52.520;13.352;2023-04-09T08:21:20;45.80;;;27.60;;
31043;SDS011;17710;52.520;13.352;2023-04-09T08:23:47;43.95;;;27.08;;
31043;SDS011;17710;52.520;13.352;2023-04-09T08:26:13;48.90;;;28.20;;
31043;SDS011;17710;52.520;13.352;2023-04-09T08:28:39;45.38;;;27.42;;
31043;SDS011;17710;52.520;13.352;2023-04-09T08:31:07;40.33;;;26.02;;
31043;SDS011;17710;52.520;13.352;2023-04-09T08:33:34;42.15;;;25.38;;
31043;SDS011;17710;52.520;13.352;2023-04-09T08:36:05;46.25;;;27.45;;
31043;SDS011;17710;52.520;13.352;2023-04-09T08:38:33;45.75;;;26.95;;
31043;SDS011;17710;52.520;13.352;2023-04-09T08:40:59;48.83;;;28.08;;
31043;SDS011;17710;52.520;13.352;2023-04-09T08:43:26;44.08;;;27.33;;
31043;SDS011;17710;52.520;13.352;2023-04-09T08:45:53;46.42;;;27.17;;
31043;SDS011;17710;52.520;13.352;2023-04-09T08:48:21;49.08;;;29.73;;
31043;SDS011;17710;52.520;13.352;2023-04-09T08:50:49;45.72;;;28.15;;
31043;SDS011;17710;52.520;13.352;2023-04-09T08:53:17;42.85;;;27.58;;
31043;SDS011;17710;52.520;13.352;2023-04-09T08:55:46;45.55;;;28.17;;
31043;SDS011;17710;52.520;13.352;2023-04-09T08:58:13;42.47;;;26.85;;
31043;SDS011;17710;52.520;13.352;2023-04-09T09:00:40;43.67;;;26.45;;
31043;SDS011;17710;52.520;13.352;2023-04-09T09:03:07;45.03;;;27.30;;
31043;SDS011;17710;52.520;13.352;2023-04-09T09:05:34;45.95;;;28.15;;
31043;SDS011;17710;52.520;13.352;2023-04-09T09:08:02;46.58;;;27.77;;
31043;SDS011;17710;52.520;13.352;2023-04-09T09:10:36;44.95;;;27.23;;
31043;SDS011;17710;52.520;13.352;2023-04-09T09:13:14;46.83;;;26.40;;
31043;SDS011;17710;52.520;13.352;2023-04-09T09:15:42;44.40;;;27.10;;
31043;SDS011;17710;52.520;13.352;2023-04-09T09:18:10;43.75;;;26.83;;
31043;SDS011;17710;52.520;13.352;2023-04-09T09:20:36;42.83;;;26.42;;
31043;SDS011;17710;52.520;13.352;2023-04-09T09:23:03;45.17;;;27.33;;
31043;SDS011;17710;52.520;13.352;2023-04-09T09:25:31;45.70;;;26.90;;
31043;SDS011;17710;52.520;13.352;2023-04-09T09:28:06;44.38;;;27.30;;
31043;SDS011;17710;52.520;13.352;2023-04-09T09:30:34;41.17;;;26.13;;
31043;SDS011;17710;52.520;13.352;2023-04-09T09:33:04;43.88;;;25.33;;
31043;SDS011;17710;52.520;13.352;2023-04-09T09:35:44;39.92;;;24.83;;
31043;SDS011;17710;52.520;13.352;2023-04-09T09:38:12;40.42;;;25.83;;
31043;SDS011;17710;52.520;13.352;2023-04-09T09:40:40;37.60;;;24.75;;
31043;SDS011;17710;52.520;13.352;2023-04-09T09:43:07;38.28;;;24.48;;
31043;SDS011;17710;52.520;13.352;2023-04-09T09:45:35;39.92;;;24.65;;
31043;SDS011;17710;52.520;13.352;2023-04-09T09:48:03;41.13;;;25.80;;
31043;SDS011;17710;52.520;13.352;2023-04-09T09:50:30;37.67;;;24.77;;
31043;SDS011;17710;52.520;13.352;2023-04-09T09:52:57;41.00;;;25.00;;
31043;SDS011;17710;52.520;13.352;2023-04-09T09:55:28;38.17;;;24.23;;
31043;SDS011;17710;52.520;13.352;2023-04-09T09:57:56;37.10;;;23.30;;
31043;SDS011;17710;52.520;13.352;2023-04-09T10:00:27;40.63;;;26.33;;
31043;SDS011;17710;52.520;13.352;2023-04-09T10:02:58;35.38;;;23.35;;
31043;SDS011;17710;52.520;13.352;2023-04-09T10:05:32;37.57;;;23.20;;
31043;SDS011;17710;52.520;13.352;2023-04-09T10:08:00;39.33;;;24.40;;
31043;SDS011;17710;52.520;13.352;2023-04-09T10:10:39;40.80;;;24.25;;
31043;SDS011;17710;52.520;13.352;2023-04-09T10:15:44;41.60;;;24.52;;
31043;SDS011;17710;52.520;13.352;2023-04-09T10:18:11;41.63;;;25.48;;
31043;SDS011;17710;52.520;13.352;2023-04-09T10:20:40;39.47;;;25.42;;
31043;SDS011;17710;52.520;13.352;2023-04-09T10:23:14;37.65;;;23.55;;
31043;SDS011;17710;52.520;13.352;2023-04-09T10:25:46;36.50;;;23.15;;
31043;SDS011;17710;52.520;13.352;2023-04-09T10:28:14;36.65;;;23.10;;
31043;SDS011;17710;52.520;13.352;2023-04-09T10:30:43;35.10;;;22.77;;
31043;SDS011;17710;52.520;13.352;2023-04-09T10:33:10;35.70;;;22.88;;
31043;SDS011;17710;52.520;13.352;2023-04-09T10:35:37;34.75;;;22.63;;
31043;SDS011;17710;52.520;13.352;2023-04-09T10:38:06;36.05;;;22.95;;
31043;SDS011;17710;52.520;13.352;2023-04-09T10:40:33;38.28;;;23.50;;
31043;SDS011;17710;52.520;13.352;2023-04-09T10:43:00;36.47;;;22.23;;
31043;SDS011;17710;52.520;13.352;2023-04-09T10:45:37;41.17;;;25.40;;
31043;SDS011;17710;52.520;13.352;2023-04-09T10:48:06;39.00;;;24.02;;
31043;SDS011;17710;52.520;13.352;2023-04-09T10:50:38;37.17;;;22.63;;
31043;SDS011;17710;52.520;13.352;2023-04-09T10:53:05;37.53;;;22.42;;
31043;SDS011;17710;52.520;13.352;2023-04-09T10:55:33;34.78;;;21.95;;
31043;SDS011;17710;52.520;13.352;2023-04-09T10:58:01;34.20;;;22.45;;
31043;SDS011;17710;52.520;13.352;2023-04-09T11:00:28;38.25;;;22.95;;
31043;SDS011;17710;52.520;13.352;2023-04-09T11:05:46;41.85;;;23.92;;
31043;SDS011;17710;52.520;13.352;2023-04-09T11:08:21;35.27;;;23.40;;
31043;SDS011;17710;52.520;13.352;2023-04-09T11:10:48;39.30;;;23.50;;
31043;SDS011;17710;52.520;13.352;2023-04-09T11:13:15;36.38;;;22.05;;
31043;SDS011;17710;52.520;13.352;2023-04-09T11:15:44;32.72;;;20.48;;
31043;SDS011;17710;52.520;13.352;2023-04-09T11:18:12;36.33;;;21.27;;
31043;SDS011;17710;52.520;13.352;2023-04-09T11:20:41;34.78;;;21.17;;
31043;SDS011;17710;52.520;13.352;2023-04-09T11:23:09;43.83;;;25.50;;
31043;SDS011;17710;52.520;13.352;2023-04-09T11:25:36;44.00;;;26.42;;
31043;SDS011;17710;52.520;13.352;2023-04-09T11:28:03;38.03;;;23.30;;
31043;SDS011;17710;52.520;13.352;2023-04-09T11:30:30;37.20;;;22.30;;
31043;SDS011;17710;52.520;13.352;2023-04-09T11:32:58;32.65;;;20.55;;
31043;SDS011;17710;52.520;13.352;2023-04-09T11:35:24;33.28;;;21.00;;
31043;SDS011;17710;52.520;13.352;2023-04-09T11:37:52;33.28;;;20.55;;
31043;SDS011;17710;52.520;13.352;2023-04-09T11:40:19;36.80;;;22.70;;
31043;SDS011;17710;52.520;13.352;2023-04-09T11:42:48;35.47;;;22.52;;
31043;SDS011;17710;52.520;13.352;2023-04-09T11:45:15;34.03;;;20.73;;
31043;SDS011;17710;52.520;13.352;2023-04-09T11:47:43;33.50;;;20.88;;
31043;SDS011;17710;52.520;13.352;2023-04-09T11:50:11;30.42;;;20.70;;
31043;SDS011;17710;52.520;13.352;2023-04-09T11:52:41;36.20;;;20.48;;
31043;SDS011;17710;52.520;13.352;2023-04-09T11:55:11;32.03;;;19.23;;
31043;SDS011;17710;52.520;13.352;2023-04-09T11:57:47;33.55;;;19.13;;
31043;SDS011;17710;52.520;13.352;2023-04-09T12:00:16;33.67;;;19.92;;
31043;SDS011;17710;52.520;13.352;2023-04-09T12:02:43;33.92;;;19.92;;
31043;SDS011;17710;52.520;13.352;2023-04-09T12:05:11;30.95;;;19.30;;
31043;SDS011;17710;52.520;13.352;2023-04-09T12:07:45;31.42;;;19.75;;
31043;SDS011;17710;52.520;13.352;2023-04-09T12:10:13;31.42;;;18.70;;
31043;SDS011;17710;52.520;13.352;2023-04-09T12:12:40;30.95;;;18.40;;
31043;SDS011;17710;52.520;13.352;2023-04-09T12:15:11;33.38;;;20.70;;
31043;SDS011;17710;52.520;13.352;2023-04-09T12:17:45;36.35;;;20.27;;
31043;SDS011;17710;52.520;13.352;2023-04-09T12:20:25;32.28;;;19.30;;
31043;SDS011;17710;52.520;13.352;2023-04-09T12:22:52;31.65;;;18.75;;
31043;SDS011;17710;52.520;13.352;2023-04-09T12:25:20;31.70;;;17.77;;
31043;SDS011;17710;52.520;13.352;2023-04-09T12:27:47;32.05;;;18.48;;
31043;SDS011;17710;52.520;13.352;2023-04-09T12:30:13;31.27;;;17.48;;
31043;SDS011;17710;52.520;13.352;2023-04-09T12:32:39;32.22;;;18.67;;
31043;SDS011;17710;52.520;13.352;2023-04-09T12:35:07;40.30;;;19.83;;
31043;SDS011;17710;52.520;13.352;2023-04-09T12:37:33;35.20;;;18.98;;
31043;SDS011;17710;52.520;13.352;2023-04-09T12:40:00;37.45;;;20.70;;
31043;SDS011;17710;52.520;13.352;2023-04-09T12:42:28;31.85;;;18.90;;
31043;SDS011;17710;52.520;13.352;2023-04-09T12:44:54;31.80;;;18.85;;
31043;SDS011;17710;52.520;13.352;2023-04-09T12:47:20;29.80;;;18.75;;
31043;SDS011;17710;52.520;13.352;2023-04-09T12:49:47;31.52;;;19.58;;
31043;SDS011;17710;52.520;13.352;2023-04-09T12:52:14;31.48;;;18.17;;
31043;SDS011;17710;52.520;13.352;2023-04-09T12:54:42;33.42;;;18.90;;
31043;SDS011;17710;52.520;13.352;2023-04-09T12:57:09;33.63;;;19.58;;
31043;SDS011;17710;52.520;13.352;2023-04-09T12:59:40;31.08;;;18.60;;
31043;SDS011;17710;52.520;13.352;2023-04-09T13:02:06;29.40;;;17.63;;
31043;SDS011;17710;52.520;13.352;2023-04-09T13:04:33;30.55;;;18.23;;
31043;SDS011;17710;52.520;13.352;2023-04-09T13:06:59;33.38;;;20.20;;
31043;SDS011;17710;52.520;13.352;2023-04-09T13:09:26;30.33;;;18.15;;
31043;SDS011;17710;52.520;13.352;2023-04-09T13:11:52;28.88;;;17.75;;
31043;SDS011;17710;52.520;13.352;2023-04-09T13:14:18;29.25;;;17.40;;
31043;SDS011;17710;52.520;13.352;2023-04-09T13:16:46;27.25;;;17.48;;
31043;SDS011;17710;52.520;13.352;2023-04-09T13:19:13;31.10;;;17.70;;
31043;SDS011;17710;52.520;13.352;2023-04-09T13:21:40;27.88;;;17.50;;
31043;SDS011;17710;52.520;13.352;2023-04-09T13:24:06;26.88;;;17.38;;
31043;SDS011;17710;52.520;13.352;2023-04-09T13:26:33;27.20;;;17.85;;
31043;SDS011;17710;52.520;13.352;2023-04-09T13:28:59;25.90;;;17.55;;
31043;SDS011;17710;52.520;13.352;2023-04-09T13:31:26;29.17;;;18.42;;
31043;SDS011;17710;52.520;13.352;2023-04-09T13:33:56;29.35;;;18.52;;
31043;SDS011;17710;52.520;13.352;2023-04-09T13:36:22;26.80;;;17.98;;
31043;SDS011;17710;52.520;13.352;2023-04-09T13:38:48;27.75;;;17.85;;
31043;SDS011;17710;52.520;13.352;2023-04-09T13:41:15;27.02;;;18.20;;
31043;SDS011;17710;52.520;13.352;2023-04-09T13:43:41;25.70;;;17.42;;
31043;SDS011;17710;52.520;13.352;2023-04-09T13:46:09;26.88;;;16.90;;
31043;SDS011;17710;52.520;13.352;2023-04-09T13:48:35;25.38;;;16.88;;
31043;SDS011;17710;52.520;13.352;2023-04-09T13:51:04;25.67;;;16.83;;
31043;SDS011;17710;52.520;13.352;2023-04-09T13:53:31;27.20;;;16.98;;
31043;SDS011;17710;52.520;13.352;2023-04-09T13:55:57;24.75;;;16.23;;
31043;SDS011;17710;52.520;13.352;2023-04-09T13:58:25;20.98;;;15.65;;
31043;SDS011;17710;52.520;13.352;2023-04-09T14:00:54;27.02;;;16.48;;
31043;SDS011;17710;52.520;13.352;2023-04-09T14:03:22;21.70;;;14.85;;
31043;SDS011;17710;52.520;13.352;2023-04-09T14:05:48;20.45;;;14.52;;
31043;SDS011;17710;52.520;13.352;2023-04-09T14:08:16;22.17;;;13.90;;
31043;SDS011;17710;52.520;13.352;2023-04-09T14:10:42;19.60;;;13.95;;
31043;SDS011;17710;52.520;13.352;2023-04-09T14:13:11;19.15;;;12.55;;
31043;SDS011;17710;52.520;13.352;2023-04-09T14:15:38;18.60;;;14.00;;